createdAt,value
2017-09-28T00:02:15.415Z,95.79
2017-09-28T00:04:42.920Z,96.20
2017-09-28T00:07:10.437Z,96.88
2017-09-28T00:09:37.982Z,95.91
2017-09-28T00:12:05.500Z,95.83
2017-09-28T00:14:33.011Z,96.03
2017-09-28T00:17:00.533Z,95.89
2017-09-28T00:19:28.084Z,95.32
2017-09-28T00:21:55.590Z,95.87
2017-09-28T00:24:23.114Z,96.55
2017-09-28T00:26:50.630Z,96.99
2017-09-28T00:29:18.142Z,96.89
2017-09-28T00:31:45.650Z,97.04
2017-09-28T00:34:13.166Z,96.58
2017-09-28T00:36:40.682Z,96.94
2017-09-28T00:39:08.219Z,96.61
2017-09-28T00:41:35.735Z,96.58
2017-09-28T00:44:03.253Z,96.19
2017-09-28T00:46:30.777Z,96.22
2017-09-28T00:48:58.297Z,96.38
2017-09-28T00:51:25.942Z,96.71
2017-09-28T00:53:53.456Z,97.24
2017-09-28T00:56:20.975Z,96.97
2017-09-28T00:58:48.487Z,96.62
2017-09-28T01:01:16.002Z,96.23
2017-09-28T01:03:43.532Z,97.00
2017-09-28T01:06:11.088Z,96.92
2017-09-28T01:08:38.589Z,96.06
2017-09-28T01:11:06.100Z,96.22
2017-09-28T01:13:33.629Z,96.20
2017-09-28T01:16:01.139Z,96.57
2017-09-28T01:18:28.642Z,96.97
2017-09-28T01:20:56.162Z,96.79
2017-09-28T01:23:23.680Z,95.96
2017-09-28T01:25:51.195Z,95.56
2017-09-28T01:28:18.700Z,94.14
2017-09-28T01:30:46.214Z,94.68
2017-09-28T01:33:13.746Z,94.80
2017-09-28T01:35:41.287Z,94.53
2017-09-28T01:38:08.801Z,95.33
2017-09-28T01:40:36.315Z,95.91
2017-09-28T01:43:03.820Z,96.13
2017-09-28T01:45:31.343Z,96.08
2017-09-28T01:47:58.875Z,96.01
2017-09-28T01:50:26.407Z,96.41
2017-09-28T01:52:53.924Z,96.97
2017-09-28T01:55:21.467Z,95.95
2017-09-28T01:57:49.006Z,95.94
2017-09-28T02:00:16.515Z,94.73
2017-09-28T02:02:44.038Z,95.10
2017-09-28T02:05:11.563Z,96.13
2017-09-28T02:07:39.097Z,95.96
2017-09-28T02:10:06.646Z,94.82
2017-09-28T02:12:34.152Z,94.38
2017-09-28T02:15:01.652Z,94.14
2017-09-28T02:17:29.162Z,95.10
2017-09-28T02:19:56.705Z,94.79
2017-09-28T02:22:24.213Z,94.12
2017-09-28T02:24:51.720Z,94.53
2017-09-28T02:27:19.228Z,94.87
2017-09-28T02:29:46.735Z,95.60
2017-09-28T02:32:14.316Z,96.11
2017-09-28T02:34:41.834Z,96.27
2017-09-28T02:37:09.352Z,96.01
2017-09-28T02:39:36.879Z,94.95
2017-09-28T02:42:04.384Z,95.46
2017-09-28T02:44:31.899Z,95.44
2017-09-28T02:46:59.396Z,95.17
2017-09-28T02:49:26.902Z,94.83
2017-09-28T02:51:54.443Z,95.30
2017-09-28T02:54:21.951Z,94.64
2017-09-28T02:56:49.459Z,94.84
2017-09-28T02:59:16.995Z,96.06
2017-09-28T03:01:44.508Z,96.48
2017-09-28T03:04:12.034Z,95.88
2017-09-28T03:06:39.550Z,95.98
2017-09-28T03:09:07.061Z,96.81
2017-09-28T03:11:34.590Z,96.79
2017-09-28T03:14:02.097Z,97.00
2017-09-28T03:16:29.607Z,97.34
2017-09-28T03:18:57.113Z,97.37
2017-09-28T03:21:24.614Z,96.95
2017-09-28T03:23:52.130Z,96.68
2017-09-28T03:26:19.633Z,97.23
2017-09-28T03:28:47.160Z,97.15
2017-09-28T03:31:14.671Z,96.21
2017-09-28T03:33:42.180Z,96.75
2017-09-28T03:36:09.695Z,96.89
2017-09-28T03:38:37.222Z,96.70
2017-09-28T03:41:04.837Z,96.89
2017-09-28T03:43:32.348Z,96.78
2017-09-28T03:45:59.856Z,96.65
2017-09-28T03:48:27.366Z,96.88
2017-09-28T03:50:54.886Z,96.38
2017-09-28T03:53:22.410Z,94.38
2017-09-28T03:55:49.919Z,94.66
2017-09-28T03:58:17.422Z,96.34
2017-09-28T04:00:44.951Z,95.87
2017-09-28T04:03:12.474Z,95.06
2017-09-28T04:05:39.978Z,94.32
2017-09-28T04:08:07.483Z,95.00
2017-09-28T04:10:34.983Z,96.41
2017-09-28T04:13:02.496Z,96.39
2017-09-28T04:15:30.027Z,96.24
2017-09-28T04:17:57.544Z,96.33
2017-09-28T04:20:25.062Z,95.33
2017-09-28T04:22:52.594Z,95.75
2017-09-28T04:25:20.090Z,96.62
2017-09-28T04:27:47.644Z,97.36
2017-09-28T04:30:15.295Z,97.48
2017-09-28T04:32:42.829Z,97.72
2017-09-28T04:35:10.359Z,97.74
2017-09-28T04:37:37.858Z,97.72
2017-09-28T04:40:05.373Z,97.82
2017-09-28T04:42:32.899Z,97.60
2017-09-28T04:45:00.423Z,97.11
2017-09-28T04:47:27.920Z,97.02
2017-09-28T04:49:55.436Z,98.09
2017-09-28T04:52:22.960Z,98.38
2017-09-28T04:54:50.463Z,98.32
2017-09-28T04:57:17.999Z,97.93
2017-09-28T04:59:45.507Z,97.71
2017-09-28T05:02:13.036Z,97.04
2017-09-28T05:04:40.560Z,96.23
2017-09-28T05:07:08.076Z,96.64
2017-09-28T05:09:35.586Z,96.00
2017-09-28T05:12:03.134Z,94.75
2017-09-28T05:14:30.636Z,95.85
2017-09-28T05:16:58.143Z,94.95
2017-09-28T05:19:25.664Z,95.61
2017-09-28T05:21:53.181Z,95.36
2017-09-28T05:24:20.685Z,95.66
2017-09-28T05:26:48.329Z,95.77
2017-09-28T05:29:15.938Z,94.50
2017-09-28T05:31:43.459Z,93.87
2017-09-28T05:34:10.980Z,94.67
2017-09-28T05:36:38.488Z,95.91
2017-09-28T05:39:06.007Z,96.90
2017-09-28T05:41:33.510Z,97.14
2017-09-28T05:44:01.045Z,97.29
2017-09-28T05:46:28.579Z,96.36
2017-09-28T05:48:56.109Z,96.63
2017-09-28T05:51:23.627Z,96.25
2017-09-28T05:53:51.131Z,95.71
2017-09-28T05:56:19.341Z,95.73
2017-09-28T05:58:48.613Z,95.38
2017-09-28T06:01:17.032Z,95.92
2017-09-28T06:03:44.536Z,94.39
2017-09-28T06:06:12.048Z,94.02
2017-09-28T06:08:39.559Z,93.58
2017-09-28T06:11:07.065Z,94.33
2017-09-28T06:13:34.589Z,94.66
2017-09-28T06:16:02.100Z,94.12
2017-09-28T06:18:29.620Z,93.06
2017-09-28T06:20:57.155Z,92.20
2017-09-28T06:23:24.660Z,90.99
2017-09-28T06:25:52.199Z,93.49
2017-09-28T06:28:19.720Z,93.55
2017-09-28T06:30:47.233Z,92.63
2017-09-28T06:33:14.747Z,92.20
2017-09-28T06:35:42.264Z,91.35
2017-09-28T06:38:09.778Z,90.50
2017-09-28T06:40:37.284Z,90.05
2017-09-28T06:43:04.804Z,89.38
2017-09-28T06:45:32.332Z,88.97
2017-09-28T06:47:59.857Z,86.77
2017-09-28T06:50:27.363Z,87.67
2017-09-28T06:52:54.891Z,85.04
2017-09-28T06:55:22.448Z,83.37
2017-09-28T06:57:49.965Z,83.54
2017-09-28T07:00:17.498Z,82.92
2017-09-28T07:02:45.059Z,83.57
2017-09-28T07:05:12.576Z,81.62
2017-09-28T07:07:40.110Z,80.20
2017-09-28T07:10:07.647Z,79.83
2017-09-28T07:12:35.180Z,80.56
2017-09-28T07:15:02.703Z,80.35
2017-09-28T07:17:30.247Z,79.39
2017-09-28T07:19:57.779Z,79.87
2017-09-28T07:22:25.309Z,79.90
2017-09-28T07:24:52.844Z,80.22
2017-09-28T07:27:20.377Z,79.14
2017-09-28T07:29:47.912Z,78.21
2017-09-28T07:32:15.436Z,77.97
2017-09-28T07:34:42.963Z,79.84
2017-09-28T07:37:10.501Z,82.44
2017-09-28T07:39:38.011Z,78.54
2017-09-28T07:42:05.550Z,80.45
2017-09-28T07:44:33.084Z,78.50
2017-09-28T07:47:10.840Z,80.32
2017-09-28T07:49:38.372Z,81.40
2017-09-28T07:52:05.891Z,79.92
2017-09-28T07:54:33.410Z,77.18
2017-09-28T07:57:00.955Z,77.84
2017-09-28T07:59:28.483Z,81.12
2017-09-28T08:01:56.105Z,80.25
2017-09-28T08:04:23.623Z,79.37
2017-09-28T08:06:51.136Z,77.17
2017-09-28T08:09:18.647Z,77.10
2017-09-28T08:11:46.180Z,72.23
2017-09-28T08:14:13.712Z,65.96
2017-09-28T08:16:41.234Z,64.83
2017-09-28T08:19:08.747Z,65.56
2017-09-28T08:21:36.282Z,60.50
2017-09-28T08:24:03.795Z,59.21
2017-09-28T08:26:31.296Z,57.77
2017-09-28T08:28:58.822Z,50.45
2017-09-28T08:31:26.352Z,59.08
2017-09-28T08:33:53.871Z,57.58
2017-09-28T08:36:21.391Z,56.78
2017-09-28T08:38:49.230Z,62.43
2017-09-28T08:41:16.728Z,58.95
2017-09-28T08:43:44.241Z,61.26
2017-09-28T08:46:11.776Z,63.66
2017-09-28T08:48:39.302Z,61.93
2017-09-28T08:51:06.841Z,65.71
2017-09-28T08:53:34.589Z,60.51
2017-09-28T08:56:02.096Z,65.98
2017-09-28T08:58:29.634Z,66.66
2017-09-28T09:00:57.172Z,63.60
2017-09-28T09:03:24.687Z,65.43
2017-09-28T09:05:52.330Z,65.53
2017-09-28T09:08:19.848Z,63.50
2017-09-28T09:10:47.366Z,62.03
2017-09-28T09:13:14.892Z,57.52
2017-09-28T09:15:42.424Z,55.32
2017-09-28T09:18:10.069Z,58.47
2017-09-28T09:20:37.587Z,54.67
2017-09-28T09:23:05.112Z,57.14
2017-09-28T09:25:32.639Z,56.75
2017-09-28T09:28:00.157Z,56.77
2017-09-28T09:30:27.682Z,61.63
2017-09-28T09:32:55.315Z,57.60
2017-09-28T09:35:22.833Z,61.18
2017-09-28T09:37:50.435Z,62.90
2017-09-28T09:40:17.951Z,63.36
2017-09-28T09:42:45.484Z,62.75
2017-09-28T09:45:12.986Z,61.24
2017-09-28T09:47:40.828Z,58.35
2017-09-28T09:50:08.334Z,58.87
2017-09-28T09:52:37.380Z,54.94
2017-09-28T09:55:04.896Z,58.02
2017-09-28T09:57:32.499Z,59.46
2017-09-28T10:00:00.029Z,55.05
2017-09-28T10:02:27.552Z,49.44
2017-09-28T10:04:55.059Z,44.14
2017-09-28T10:07:26.899Z,39.36
2017-09-28T10:10:00.436Z,42.99
2017-09-28T10:12:36.306Z,37.56
2017-09-28T10:15:09.820Z,41.22
2017-09-28T10:17:38.166Z,44.05
2017-09-28T10:20:05.688Z,46.77
2017-09-28T10:22:33.205Z,48.33
2017-09-28T10:25:00.733Z,49.23
2017-09-28T10:27:28.267Z,55.80
2017-09-28T10:29:55.850Z,58.24
2017-09-28T10:32:23.390Z,54.98
2017-09-28T10:34:50.915Z,55.83
2017-09-28T10:37:18.440Z,56.82
2017-09-28T10:39:45.949Z,58.01
2017-09-28T10:42:13.457Z,58.98
2017-09-28T10:44:40.965Z,60.27
2017-09-28T10:47:08.478Z,58.80
2017-09-28T10:49:35.996Z,56.66
2017-09-28T10:52:03.494Z,58.47
2017-09-28T10:54:31.013Z,58.56
2017-09-28T10:56:58.529Z,57.06
2017-09-28T10:59:26.044Z,57.59
2017-09-28T11:01:53.539Z,57.73
2017-09-28T11:04:21.056Z,58.39
2017-09-28T11:06:48.564Z,57.26
2017-09-28T11:09:16.072Z,52.89
2017-09-28T11:11:43.575Z,53.45
2017-09-28T11:14:11.079Z,50.01
2017-09-28T11:16:38.585Z,50.02
2017-09-28T11:19:06.108Z,47.45
2017-09-28T11:21:33.630Z,47.47
2017-09-28T11:24:01.154Z,46.46
2017-09-28T11:26:28.703Z,43.42
2017-09-28T11:28:56.288Z,46.38
2017-09-28T11:31:23.807Z,43.08
2017-09-28T11:33:51.364Z,40.22
2017-09-28T11:36:18.858Z,38.37
2017-09-28T11:38:46.361Z,38.87
2017-09-28T11:41:13.871Z,43.98
2017-09-28T11:43:41.376Z,41.77
2017-09-28T11:46:08.896Z,35.70
2017-09-28T11:48:36.504Z,29.85
2017-09-28T11:51:04.653Z,31.50
2017-09-28T11:53:32.178Z,31.59
2017-09-28T11:55:59.694Z,35.11
2017-09-28T11:58:27.243Z,40.93
2017-09-28T12:00:55.028Z,42.42
2017-09-28T12:03:22.529Z,45.22
2017-09-28T12:05:50.032Z,42.20
2017-09-28T12:08:17.547Z,42.85
2017-09-28T12:10:45.048Z,43.08
2017-09-28T12:13:12.558Z,38.98
2017-09-28T12:15:40.523Z,36.52
2017-09-28T12:18:08.028Z,30.50
2017-09-28T12:20:35.586Z,33.01
2017-09-28T12:23:03.239Z,26.82
2017-09-28T12:25:30.757Z,29.04
2017-09-28T12:27:58.261Z,28.01
2017-09-28T12:30:25.797Z,31.23
2017-09-28T12:32:53.311Z,32.28
2017-09-28T12:35:20.844Z,32.78
2017-09-28T12:37:48.360Z,32.83
2017-09-28T12:40:15.877Z,34.67
2017-09-28T12:42:43.394Z,31.55
2017-09-28T12:45:10.921Z,30.72
2017-09-28T12:47:38.478Z,34.54
2017-09-28T12:50:06.032Z,34.61
2017-09-28T12:52:33.530Z,33.52
2017-09-28T12:55:01.036Z,39.36
2017-09-28T12:57:28.545Z,42.28
2017-09-28T12:59:56.056Z,46.79
2017-09-28T13:02:23.941Z,46.60
2017-09-28T13:04:51.467Z,42.72
2017-09-28T13:07:18.976Z,38.48
2017-09-28T13:09:46.475Z,38.28
2017-09-28T13:12:13.982Z,35.52
2017-09-28T13:14:41.498Z,35.15
2017-09-28T13:17:09.006Z,34.41
2017-09-28T13:19:36.913Z,34.98
2017-09-28T13:22:04.418Z,33.75
2017-09-28T13:24:31.943Z,37.43
2017-09-28T13:26:59.522Z,34.48
2017-09-28T13:29:27.031Z,32.34
2017-09-28T13:31:54.555Z,32.54
2017-09-28T13:34:22.079Z,34.54
2017-09-28T13:36:49.583Z,34.34
2017-09-28T13:39:17.121Z,40.04
2017-09-28T13:41:44.627Z,37.24
2017-09-28T13:44:12.131Z,35.19
2017-09-28T13:46:39.656Z,35.02
2017-09-28T13:49:07.175Z,33.74
2017-09-28T13:51:34.723Z,33.57
2017-09-28T13:54:02.254Z,33.33
2017-09-28T13:56:30.496Z,33.40
2017-09-28T13:58:58.005Z,32.82
2017-09-28T14:01:25.511Z,34.31
2017-09-28T14:03:53.032Z,33.89
2017-09-28T14:06:20.545Z,33.52
2017-09-28T14:08:48.080Z,34.27
2017-09-28T14:11:15.605Z,35.33
2017-09-28T14:13:43.190Z,38.19
2017-09-28T14:16:10.731Z,40.79
2017-09-28T14:18:38.237Z,41.37
2017-09-28T14:21:05.752Z,40.83
2017-09-28T14:23:33.260Z,40.12
2017-09-28T14:26:00.814Z,44.69
2017-09-28T14:28:35.695Z,46.01
2017-09-28T14:31:03.222Z,48.00
2017-09-28T14:33:30.732Z,46.83
2017-09-28T14:35:58.275Z,48.24
2017-09-28T14:38:25.802Z,46.42
2017-09-28T14:40:53.328Z,47.04
2017-09-28T14:43:20.920Z,47.04
2017-09-28T14:45:48.453Z,48.02
2017-09-28T14:48:15.977Z,51.50
2017-09-28T14:50:43.488Z,49.06
2017-09-28T14:53:10.993Z,47.30
2017-09-28T14:55:38.524Z,48.57
2017-09-28T14:58:06.042Z,49.84
2017-09-28T15:00:33.546Z,49.60
2017-09-28T15:03:01.074Z,57.84
2017-09-28T15:05:28.584Z,59.24
2017-09-28T15:07:56.124Z,59.96
2017-09-28T15:10:23.627Z,60.38
2017-09-28T15:12:51.139Z,63.37
2017-09-28T15:15:18.714Z,64.89
2017-09-28T15:17:46.245Z,62.34
2017-09-28T15:20:13.753Z,60.66
2017-09-28T15:22:41.392Z,64.91
2017-09-28T15:25:08.947Z,63.81
2017-09-28T15:27:36.457Z,64.34
2017-09-28T15:30:03.954Z,63.43
2017-09-28T15:32:31.476Z,65.57
2017-09-28T15:35:10.230Z,65.69
2017-09-28T15:37:37.747Z,64.65
2017-09-28T15:40:05.272Z,63.94
2017-09-28T15:42:33.008Z,64.09
2017-09-28T15:45:00.568Z,65.12
2017-09-28T15:47:28.090Z,65.49
2017-09-28T15:49:55.621Z,56.78
2017-09-28T15:52:23.120Z,64.29
2017-09-28T15:54:50.661Z,63.50
2017-09-28T15:57:18.192Z,65.59
2017-09-28T15:59:45.709Z,67.39
2017-09-28T16:02:13.229Z,67.27
2017-09-28T16:04:40.745Z,67.81
2017-09-28T16:07:09.055Z,67.14
2017-09-28T16:09:36.614Z,69.56
2017-09-28T16:12:04.142Z,70.03
2017-09-28T16:14:31.682Z,71.32
2017-09-28T16:16:59.209Z,72.88
2017-09-28T16:19:26.815Z,73.81
2017-09-28T16:21:54.376Z,74.76
2017-09-28T16:24:21.882Z,75.44
2017-09-28T16:26:49.492Z,75.38
2017-09-28T16:29:17.011Z,74.88
2017-09-28T16:31:44.558Z,74.76
2017-09-28T16:34:12.076Z,76.08
2017-09-28T16:36:39.591Z,77.06
2017-09-28T16:39:07.101Z,76.88
2017-09-28T16:41:35.608Z,76.89
2017-09-28T16:44:03.132Z,77.29
2017-09-28T16:46:30.656Z,77.59
2017-09-28T16:48:58.161Z,78.20
2017-09-28T16:51:25.730Z,78.38
2017-09-28T16:53:53.285Z,78.42
2017-09-28T16:56:20.803Z,79.62
2017-09-28T16:58:48.409Z,79.62
2017-09-28T17:01:15.920Z,80.77
2017-09-28T17:03:43.604Z,81.87
2017-09-28T17:06:11.163Z,81.01
2017-09-28T17:08:38.680Z,79.35
2017-09-28T17:11:06.187Z,79.38
2017-09-28T17:13:33.726Z,79.53
2017-09-28T17:16:01.260Z,80.08
2017-09-28T17:18:28.774Z,79.83
2017-09-28T17:20:58.130Z,80.98
2017-09-28T17:23:25.680Z,82.23
2017-09-28T17:25:53.204Z,83.84
2017-09-28T17:28:20.785Z,85.92
2017-09-28T17:30:48.337Z,85.91
2017-09-28T17:33:15.914Z,86.02
2017-09-28T17:35:43.442Z,85.08
2017-09-28T17:38:11.014Z,85.90
2017-09-28T17:40:38.556Z,85.29
2017-09-28T17:43:06.169Z,86.68
2017-09-28T17:45:33.704Z,85.77
2017-09-28T17:48:01.207Z,86.15
2017-09-28T17:50:28.786Z,86.42
2017-09-28T17:52:56.340Z,85.02
2017-09-28T17:55:23.975Z,86.24
2017-09-28T17:57:51.625Z,87.50
2017-09-28T18:00:19.170Z,88.85
2017-09-28T18:02:46.747Z,89.38
2017-09-28T18:05:14.459Z,89.76
2017-09-28T18:07:42.023Z,90.59
2017-09-28T18:10:09.588Z,90.27
2017-09-28T18:12:37.104Z,90.72
2017-09-28T18:15:04.657Z,89.96
2017-09-28T18:17:32.222Z,88.92
2017-09-28T18:19:59.859Z,89.70
2017-09-28T18:22:28.410Z,90.36
2017-09-28T18:24:55.983Z,91.29
2017-09-28T18:27:23.527Z,91.66
2017-09-28T18:29:51.044Z,92.47
2017-09-28T18:32:18.575Z,92.21
2017-09-28T18:34:46.995Z,91.98
2017-09-28T18:37:14.577Z,92.95
2017-09-28T18:39:43.142Z,91.81
2017-09-28T18:42:10.674Z,91.43
2017-09-28T18:44:38.216Z,92.50
2017-09-28T18:47:05.805Z,92.62
2017-09-28T18:49:33.342Z,93.31
2017-09-28T18:52:00.884Z,92.92
2017-09-28T18:54:28.398Z,92.66
2017-09-28T18:56:55.939Z,92.75
2017-09-28T18:59:23.463Z,91.68
2017-09-28T19:01:50.995Z,90.95
2017-09-28T19:04:18.528Z,91.63
2017-09-28T19:06:46.100Z,92.37
2017-09-28T19:09:13.630Z,91.93
2017-09-28T19:11:41.185Z,91.35
2017-09-28T19:14:08.699Z,92.52
2017-09-28T19:16:36.233Z,91.66
2017-09-28T19:19:03.778Z,90.09
2017-09-28T19:21:31.392Z,92.06
2017-09-28T19:23:59.050Z,93.08
2017-09-28T19:26:26.712Z,93.68
2017-09-28T19:28:54.382Z,93.54
2017-09-28T19:31:21.916Z,93.29
2017-09-28T19:33:49.456Z,91.90
2017-09-28T19:36:17.018Z,92.09
2017-09-28T19:38:44.538Z,92.36
2017-09-28T19:41:12.095Z,93.23
2017-09-28T19:43:39.639Z,93.44
2017-09-28T19:46:07.164Z,93.62
2017-09-28T19:48:34.688Z,93.16
2017-09-28T19:51:02.223Z,92.98
2017-09-28T19:53:29.793Z,93.26
2017-09-28T19:55:57.350Z,92.42
2017-09-28T19:58:24.882Z,92.24
2017-09-28T20:00:52.536Z,93.11
2017-09-28T20:03:20.050Z,93.62
2017-09-28T20:05:47.596Z,93.76
2017-09-28T20:08:15.143Z,93.44
2017-09-28T20:10:42.771Z,93.10
2017-09-28T20:13:10.289Z,93.08
2017-09-28T20:15:37.828Z,93.44
2017-09-28T20:18:05.366Z,93.45
2017-09-28T20:20:32.886Z,94.20
2017-09-28T20:23:00.422Z,94.04
2017-09-28T20:25:27.948Z,94.09
2017-09-28T20:27:55.467Z,92.63
2017-09-28T20:30:22.984Z,92.50
2017-09-28T20:32:50.507Z,92.68
2017-09-28T20:35:18.011Z,91.24
2017-09-28T20:37:45.547Z,91.75
2017-09-28T20:40:13.067Z,92.66
2017-09-28T20:42:40.588Z,91.58
2017-09-28T20:45:08.116Z,91.59
2017-09-28T20:47:35.642Z,91.86
2017-09-28T20:50:03.185Z,93.22
2017-09-28T20:52:30.730Z,93.71
2017-09-28T20:54:58.262Z,94.06
2017-09-28T20:57:25.780Z,93.91
2017-09-28T20:59:53.332Z,92.48
2017-09-28T21:02:20.888Z,91.95
2017-09-28T21:04:48.423Z,93.34
2017-09-28T21:07:15.948Z,95.11
2017-09-28T21:09:43.470Z,94.96
2017-09-28T21:12:11.005Z,94.41
2017-09-28T21:14:38.515Z,92.82
2017-09-28T21:17:06.024Z,93.68
2017-09-28T21:19:33.568Z,93.14
2017-09-28T21:22:01.073Z,93.73
2017-09-28T21:24:28.589Z,93.82
2017-09-28T21:26:56.115Z,92.68
2017-09-28T21:29:23.640Z,92.90
2017-09-28T21:31:51.174Z,93.78
2017-09-28T21:34:18.746Z,94.03
2017-09-28T21:36:46.290Z,94.13
2017-09-28T21:39:13.815Z,94.87
2017-09-28T21:41:41.342Z,95.48
2017-09-28T21:44:08.863Z,95.68
2017-09-28T21:46:36.387Z,96.07
2017-09-28T21:49:03.924Z,95.58
2017-09-28T21:51:31.448Z,95.31
2017-09-28T21:53:59.391Z,95.36
2017-09-28T21:56:26.903Z,95.96
2017-09-28T21:58:54.424Z,96.58
2017-09-28T22:01:22.082Z,96.63
2017-09-28T22:03:49.605Z,96.79
2017-09-28T22:06:17.116Z,96.92
2017-09-28T22:08:44.641Z,96.85
2017-09-28T22:11:12.156Z,96.63
2017-09-28T22:13:39.673Z,96.08
2017-09-28T22:16:07.187Z,96.36
2017-09-28T22:18:34.744Z,96.39
2017-09-28T22:21:02.275Z,96.42
2017-09-28T22:23:29.923Z,97.15
2017-09-28T22:25:57.494Z,96.86
2017-09-28T22:28:25.047Z,96.65
2017-09-28T22:30:52.584Z,96.40
2017-09-28T22:33:20.114Z,95.86
2017-09-28T22:35:47.640Z,95.26
2017-09-28T22:38:15.161Z,95.65
2017-09-28T22:40:42.684Z,96.04
2017-09-28T22:43:10.215Z,96.29
2017-09-28T22:45:37.731Z,95.94
2017-09-28T22:48:05.250Z,95.40
2017-09-28T22:50:32.770Z,95.68
2017-09-28T22:53:00.288Z,94.94
2017-09-28T22:55:27.819Z,95.47
2017-09-28T22:57:55.355Z,95.84
2017-09-28T23:00:22.882Z,96.83
2017-09-28T23:02:50.416Z,97.13
2017-09-28T23:05:17.961Z,96.95
2017-09-28T23:07:45.470Z,94.78
2017-09-28T23:10:13.014Z,93.46
2017-09-28T23:12:40.526Z,94.68
2017-09-28T23:15:08.064Z,94.37
2017-09-28T23:17:35.654Z,94.03
2017-09-28T23:20:03.199Z,93.49
2017-09-28T23:22:30.724Z,94.83
2017-09-28T23:24:58.247Z,95.30
2017-09-28T23:27:25.779Z,95.64
2017-09-28T23:29:53.305Z,95.29
2017-09-28T23:32:20.830Z,95.22
2017-09-28T23:34:48.367Z,96.29
2017-09-28T23:37:15.898Z,96.48
2017-09-28T23:39:43.427Z,96.87
2017-09-28T23:42:10.953Z,96.90
2017-09-28T23:44:38.475Z,97.42
2017-09-28T23:47:05.999Z,96.59
2017-09-28T23:49:33.518Z,95.56
2017-09-28T23:52:01.049Z,96.06
2017-09-28T23:54:28.586Z,96.11
2017-09-28T23:56:56.129Z,96.76
2017-09-28T23:59:23.655Z,96.18
